createdAt,value
2019-03-23T00:00:19.767Z,12.18
2019-03-23T00:02:52.974Z,13.32
2019-03-23T00:05:24.938Z,12.20
2019-03-23T00:07:56.835Z,12.50
2019-03-23T00:10:28.838Z,13.90
2019-03-23T00:13:00.948Z,12.68
2019-03-23T00:15:32.811Z,11.65
2019-03-23T00:18:04.856Z,12.07
2019-03-23T00:20:36.807Z,11.73
2019-03-23T00:23:08.779Z,12.28
2019-03-23T00:25:40.663Z,14.25
2019-03-23T00:28:12.564Z,14.03
2019-03-23T00:30:44.458Z,13.88
2019-03-23T00:33:16.412Z,13.53
2019-03-23T00:35:48.380Z,12.35
2019-03-23T00:38:20.399Z,12.98
2019-03-23T00:40:52.254Z,12.75
2019-03-23T00:43:24.160Z,13.48
2019-03-23T00:45:56.219Z,12.78
2019-03-23T00:48:28.464Z,13.95
2019-03-23T00:51:00.363Z,12.50
2019-03-23T00:53:32.291Z,11.93
2019-03-23T00:56:04.189Z,12.65
2019-03-23T00:58:36.087Z,14.43
2019-03-23T01:01:07.948Z,13.10
2019-03-23T01:03:39.950Z,10.90
2019-03-23T01:06:11.863Z,10.68
2019-03-23T01:08:43.782Z,12.20
2019-03-23T01:11:15.657Z,13.28
2019-03-23T01:13:47.606Z,13.20
2019-03-23T01:16:19.464Z,13.88
2019-03-23T01:18:51.528Z,13.25
2019-03-23T01:21:23.393Z,12.88
2019-03-23T01:23:55.313Z,15.25
2019-03-23T01:26:27.171Z,15.60
2019-03-23T01:28:59.029Z,14.35
2019-03-23T01:31:30.971Z,15.05
2019-03-23T01:34:02.831Z,13.78
2019-03-23T01:36:34.817Z,14.60
2019-03-23T01:39:08.440Z,14.55
2019-03-23T01:41:40.326Z,15.53
2019-03-23T01:44:12.224Z,15.10
2019-03-23T01:46:44.079Z,14.58
2019-03-23T01:49:15.977Z,15.50
2019-03-23T01:51:47.872Z,14.78
2019-03-23T01:54:19.739Z,15.18
2019-03-23T01:56:51.646Z,14.85
2019-03-23T01:59:23.497Z,11.57
2019-03-23T02:01:55.400Z,10.98
2019-03-23T02:04:27.261Z,12.55
2019-03-23T02:06:59.266Z,13.98
2019-03-23T02:09:31.127Z,13.20
2019-03-23T02:12:03.523Z,12.80
2019-03-23T02:14:35.378Z,12.90
2019-03-23T02:17:07.281Z,13.95
2019-03-23T02:19:39.199Z,14.33
2019-03-23T02:22:11.092Z,13.93
2019-03-23T02:24:42.998Z,13.35
2019-03-23T02:27:14.856Z,12.88
2019-03-23T02:29:46.777Z,13.65
2019-03-23T02:32:18.747Z,13.65
2019-03-23T02:34:50.672Z,13.50
2019-03-23T02:37:28.034Z,14.05
2019-03-23T02:39:56.628Z,13.88
2019-03-23T02:42:28.725Z,14.03
2019-03-23T02:45:01.957Z,14.43
2019-03-23T02:47:33.851Z,14.23
2019-03-23T02:50:06.524Z,14.85
2019-03-23T02:52:38.695Z,13.75
2019-03-23T02:55:12.396Z,13.88
2019-03-23T02:57:44.825Z,13.35
2019-03-23T03:00:17.507Z,14.05
2019-03-23T03:02:49.500Z,12.40
2019-03-23T03:05:21.387Z,13.45
2019-03-23T03:07:53.238Z,13.25
2019-03-23T03:10:41.171Z,12.88
2019-03-23T03:13:13.045Z,13.35
2019-03-23T03:15:44.925Z,12.55
2019-03-23T03:18:16.772Z,13.43
2019-03-23T03:20:48.776Z,13.43
2019-03-23T03:23:20.745Z,12.63
2019-03-23T03:25:52.654Z,13.05
2019-03-23T03:28:24.527Z,13.53
2019-03-23T03:30:56.432Z,12.65
2019-03-23T03:33:29.502Z,12.50
2019-03-23T03:36:01.370Z,12.82
2019-03-23T03:38:33.258Z,13.50
2019-03-23T03:41:05.454Z,13.75
2019-03-23T03:43:37.320Z,12.28
2019-03-23T03:46:09.279Z,12.88
2019-03-23T03:48:41.200Z,12.82
2019-03-23T03:51:13.094Z,13.28
2019-03-23T03:53:44.988Z,13.95
2019-03-23T03:56:18.066Z,13.65
2019-03-23T03:58:51.273Z,13.20
2019-03-23T04:01:23.165Z,13.05
2019-03-23T04:03:55.602Z,12.55
2019-03-23T04:06:28.730Z,12.68
2019-03-23T04:09:00.637Z,12.23
2019-03-23T04:11:34.074Z,13.13
2019-03-23T04:14:07.116Z,12.75
2019-03-23T04:16:40.568Z,12.97
2019-03-23T04:19:12.482Z,12.33
2019-03-23T04:21:45.435Z,12.85
2019-03-23T04:24:17.350Z,11.95
2019-03-23T04:26:49.263Z,13.20
2019-03-23T04:29:22.270Z,12.03
2019-03-23T04:31:54.112Z,12.53
2019-03-23T04:34:27.033Z,11.78
2019-03-23T04:36:58.920Z,12.65
2019-03-23T04:39:30.815Z,11.80
2019-03-23T04:42:02.718Z,12.18
2019-03-23T04:44:34.617Z,11.85
2019-03-23T04:47:06.478Z,12.40
2019-03-23T04:49:38.368Z,12.40
2019-03-23T04:52:10.265Z,11.30
2019-03-23T04:54:42.155Z,12.40
2019-03-23T04:57:14.049Z,12.78
2019-03-23T04:59:46.540Z,12.95
2019-03-23T05:02:18.491Z,12.18
2019-03-23T05:04:50.405Z,12.40
2019-03-23T05:07:22.786Z,12.40
2019-03-23T05:09:57.608Z,12.75
2019-03-23T05:12:29.470Z,12.80
2019-03-23T05:15:02.358Z,12.85
2019-03-23T05:17:34.264Z,12.75
2019-03-23T05:20:07.104Z,12.25
2019-03-23T05:22:39.309Z,12.80
2019-03-23T05:25:23.015Z,12.10
2019-03-23T05:27:55.274Z,12.43
2019-03-23T05:30:27.220Z,11.75
2019-03-23T05:32:59.131Z,12.45
2019-03-23T05:35:31.026Z,11.68
2019-03-23T05:38:03.369Z,11.48
2019-03-23T05:40:35.230Z,10.98
2019-03-23T05:43:07.143Z,11.48
2019-03-23T05:45:39.004Z,11.12
2019-03-23T05:48:10.910Z,11.13
2019-03-23T05:50:42.771Z,11.18
2019-03-23T05:53:14.674Z,11.75
2019-03-23T05:55:46.530Z,10.72
2019-03-23T05:58:18.525Z,10.93
2019-03-23T06:00:50.397Z,11.63
2019-03-23T06:03:22.277Z,11.30
2019-03-23T06:05:54.241Z,11.88
2019-03-23T06:08:26.136Z,11.73
2019-03-23T06:10:58.009Z,12.25
2019-03-23T06:13:29.923Z,11.18
2019-03-23T06:16:01.787Z,11.88
2019-03-23T06:18:33.721Z,11.83
2019-03-23T06:21:05.580Z,12.23
2019-03-23T06:23:37.609Z,12.50
2019-03-23T06:26:09.510Z,11.38
2019-03-23T06:28:41.391Z,11.35
2019-03-23T06:31:13.291Z,11.55
2019-03-23T06:33:45.191Z,11.43
2019-03-23T06:36:17.089Z,11.40
2019-03-23T06:38:49.000Z,11.35
2019-03-23T06:41:20.870Z,11.33
2019-03-23T06:43:54.497Z,12.13
2019-03-23T06:46:26.356Z,10.82
2019-03-23T06:48:58.265Z,11.25
2019-03-23T06:51:30.142Z,10.40
2019-03-23T06:54:02.273Z,10.30
2019-03-23T06:56:34.130Z,10.67
2019-03-23T06:59:06.170Z,10.90
2019-03-23T07:01:38.092Z,11.03
2019-03-23T07:04:09.986Z,11.33
2019-03-23T07:06:41.849Z,11.90
2019-03-23T07:09:16.440Z,12.50
2019-03-23T07:11:47.319Z,12.73
2019-03-23T07:14:19.283Z,12.47
2019-03-23T07:16:51.193Z,12.10
2019-03-23T07:19:23.487Z,12.30
2019-03-23T07:21:55.535Z,10.95
2019-03-23T07:24:27.522Z,10.90
2019-03-23T07:26:59.405Z,10.68
2019-03-23T07:29:31.262Z,10.82
2019-03-23T07:32:05.934Z,11.95
2019-03-23T07:34:36.755Z,11.30
2019-03-23T07:37:08.648Z,12.63
2019-03-23T07:39:40.509Z,13.08
2019-03-23T07:42:12.419Z,14.47
2019-03-23T07:44:44.284Z,14.78
2019-03-23T07:47:16.178Z,14.47
2019-03-23T07:49:48.046Z,13.25
2019-03-23T07:52:19.951Z,11.15
2019-03-23T07:54:51.855Z,10.75
2019-03-23T07:57:23.719Z,9.63
2019-03-23T07:59:55.637Z,9.55
2019-03-23T08:02:27.543Z,9.35
2019-03-23T08:04:59.845Z,9.63
2019-03-23T08:07:31.747Z,8.70
2019-03-23T08:10:03.596Z,8.90
2019-03-23T08:12:35.528Z,8.78
2019-03-23T08:15:08.594Z,9.08
2019-03-23T08:17:40.614Z,8.65
2019-03-23T08:20:12.592Z,7.78
2019-03-23T08:22:44.909Z,8.93
2019-03-23T08:25:16.811Z,7.90
2019-03-23T08:27:48.772Z,8.38
2019-03-23T08:30:20.682Z,8.33
2019-03-23T08:32:52.633Z,7.30
2019-03-23T08:35:24.565Z,6.70
2019-03-23T08:37:56.462Z,6.95
2019-03-23T08:40:28.372Z,7.17
2019-03-23T08:43:00.319Z,7.17
2019-03-23T08:45:32.209Z,7.12
2019-03-23T08:48:04.216Z,7.17
2019-03-23T08:50:36.639Z,6.55
2019-03-23T08:53:08.636Z,7.20
2019-03-23T08:55:40.533Z,7.28
2019-03-23T08:58:12.395Z,6.58
2019-03-23T09:00:44.290Z,7.03
2019-03-23T09:03:16.389Z,6.75
2019-03-23T09:05:48.264Z,7.25
2019-03-23T09:08:20.123Z,7.28
2019-03-23T09:10:52.015Z,8.15
2019-03-23T09:13:23.925Z,8.58
2019-03-23T09:15:55.938Z,8.35
2019-03-23T09:18:27.828Z,7.62
2019-03-23T09:20:59.700Z,7.67
2019-03-23T09:23:31.680Z,7.85
2019-03-23T09:26:03.698Z,8.60
2019-03-23T09:28:35.594Z,8.00
2019-03-23T09:31:07.461Z,8.65
2019-03-23T09:33:39.383Z,9.23
2019-03-23T09:36:11.248Z,9.95
2019-03-23T09:38:43.164Z,9.53
2019-03-23T09:41:15.192Z,8.33
2019-03-23T09:43:47.099Z,9.00
2019-03-23T09:46:19.066Z,8.88
2019-03-23T09:48:50.967Z,9.20
2019-03-23T09:51:22.830Z,7.87
2019-03-23T09:53:54.765Z,7.58
2019-03-23T09:56:26.678Z,8.23
2019-03-23T09:58:58.612Z,6.97
2019-03-23T10:01:30.553Z,6.92
2019-03-23T10:04:02.456Z,6.85
2019-03-23T10:06:34.360Z,6.55
2019-03-23T10:09:07.705Z,7.25
2019-03-23T10:11:39.598Z,7.28
2019-03-23T10:14:11.462Z,6.80
2019-03-23T10:16:43.379Z,7.25
2019-03-23T10:19:15.250Z,5.20
2019-03-23T10:21:47.345Z,4.95
2019-03-23T10:24:19.260Z,4.42
2019-03-23T10:26:52.355Z,4.00
2019-03-23T10:29:24.571Z,3.98
2019-03-23T10:31:56.494Z,4.03
2019-03-23T10:34:28.391Z,5.30
2019-03-23T10:37:00.289Z,5.67
2019-03-23T10:39:32.228Z,3.60
2019-03-23T10:42:04.115Z,3.85
2019-03-23T10:44:35.974Z,3.27
2019-03-23T10:47:07.963Z,3.20
2019-03-23T10:49:39.943Z,3.72
2019-03-23T10:52:11.991Z,4.03
2019-03-23T10:54:43.896Z,4.53
2019-03-23T10:57:15.846Z,3.90
2019-03-23T10:59:48.291Z,7.58
2019-03-23T11:02:20.238Z,5.00
2019-03-23T11:04:52.208Z,4.60
2019-03-23T11:07:24.260Z,4.00
2019-03-23T11:09:57.186Z,6.00
2019-03-23T11:12:29.079Z,5.97
2019-03-23T11:15:01.008Z,4.67
2019-03-23T11:17:34.025Z,4.00
2019-03-23T11:20:07.317Z,4.00
2019-03-23T11:22:39.484Z,3.77
2019-03-23T11:25:11.411Z,4.25
2019-03-23T11:27:43.951Z,8.73
2019-03-23T11:30:16.246Z,7.15
2019-03-23T11:32:48.708Z,5.12
2019-03-23T11:35:20.846Z,4.08
2019-03-23T11:37:52.956Z,4.20
2019-03-23T11:40:24.978Z,3.10
2019-03-23T11:42:56.907Z,3.50
2019-03-23T11:45:28.964Z,3.35
2019-03-23T11:48:01.217Z,3.15
2019-03-23T11:50:33.163Z,3.30
2019-03-23T11:53:05.020Z,3.15
2019-03-23T11:55:37.037Z,3.55
2019-03-23T11:58:21.177Z,4.12
2019-03-23T12:00:53.035Z,3.47
2019-03-23T12:03:25.015Z,4.53
2019-03-23T12:05:56.916Z,4.25
2019-03-23T12:08:28.759Z,3.17
2019-03-23T12:11:03.132Z,3.05
2019-03-23T12:13:34.529Z,2.80
2019-03-23T12:16:06.518Z,3.92
2019-03-23T12:18:39.093Z,2.90
2019-03-23T12:21:11.065Z,3.72
2019-03-23T12:23:44.459Z,3.62
2019-03-23T12:26:16.322Z,3.00
2019-03-23T12:28:48.307Z,4.25
2019-03-23T12:31:20.259Z,3.90
2019-03-23T12:33:52.635Z,3.45
2019-03-23T12:36:25.020Z,3.05
2019-03-23T12:38:56.963Z,3.40
2019-03-23T12:41:28.842Z,2.90
2019-03-23T12:44:04.810Z,4.70
2019-03-23T12:46:47.691Z,3.92
2019-03-23T12:49:13.734Z,3.58
2019-03-23T12:51:45.713Z,5.65
2019-03-23T12:54:18.126Z,4.62
2019-03-23T12:56:50.038Z,3.12
2019-03-23T12:59:21.885Z,2.92
2019-03-23T13:01:54.129Z,2.85
2019-03-23T13:04:26.025Z,3.80
2019-03-23T13:06:58.463Z,3.20
2019-03-23T13:09:30.378Z,2.83
2019-03-23T13:12:02.281Z,2.85
2019-03-23T13:14:34.138Z,2.60
2019-03-23T13:17:06.024Z,3.02
2019-03-23T13:19:37.986Z,3.25
2019-03-23T13:22:09.919Z,2.50
2019-03-23T13:24:42.596Z,3.17
2019-03-23T13:27:14.516Z,3.30
2019-03-23T13:29:48.931Z,3.17
2019-03-23T13:32:20.866Z,2.83
2019-03-23T13:34:52.846Z,2.75
2019-03-23T13:37:24.838Z,2.52
2019-03-23T13:39:56.845Z,2.67
2019-03-23T13:42:28.704Z,2.52
2019-03-23T13:45:01.157Z,2.98
2019-03-23T13:47:33.278Z,2.45
2019-03-23T13:50:05.469Z,2.60
2019-03-23T13:52:37.475Z,7.55
2019-03-23T13:55:24.446Z,3.10
2019-03-23T13:57:58.376Z,3.05
2019-03-23T14:00:30.328Z,2.37
2019-03-23T14:03:02.185Z,2.47
2019-03-23T14:05:34.094Z,4.67
2019-03-23T14:08:06.221Z,2.90
2019-03-23T14:10:38.096Z,2.92
2019-03-23T14:13:10.038Z,5.83
2019-03-23T14:15:41.910Z,2.40
2019-03-23T14:18:13.828Z,2.75
2019-03-23T14:20:47.395Z,2.67
2019-03-23T14:23:19.261Z,2.62
2019-03-23T14:25:51.121Z,2.52
2019-03-23T14:28:23.111Z,2.45
2019-03-23T14:30:55.054Z,3.00
2019-03-23T14:33:27.025Z,3.00
2019-03-23T14:35:59.077Z,2.35
2019-03-23T14:38:31.409Z,10.15
2019-03-23T14:41:03.888Z,2.70
2019-03-23T14:43:36.109Z,3.37
2019-03-23T14:46:08.535Z,3.27
2019-03-23T14:48:41.177Z,2.17
2019-03-23T14:51:13.591Z,2.60
2019-03-23T14:53:45.454Z,2.60
2019-03-23T14:56:17.943Z,2.90
2019-03-23T14:58:50.290Z,2.50
2019-03-23T15:01:22.775Z,3.08
2019-03-23T15:03:55.243Z,2.90
2019-03-23T15:06:27.599Z,2.92
2019-03-23T15:09:00.135Z,3.00
2019-03-23T15:11:32.643Z,2.98
2019-03-23T15:14:08.158Z,3.27
2019-03-23T15:16:42.548Z,3.12
2019-03-23T15:19:15.716Z,2.85
2019-03-23T15:21:48.250Z,3.00
2019-03-23T15:24:20.720Z,3.47
2019-03-23T15:26:52.999Z,3.95
2019-03-23T15:29:25.482Z,3.05
2019-03-23T15:31:57.945Z,2.80
2019-03-23T15:34:30.555Z,2.58
2019-03-23T15:37:03.183Z,2.60
2019-03-23T15:39:37.052Z,2.75
2019-03-23T15:42:09.616Z,2.98
2019-03-23T15:44:41.532Z,2.75
2019-03-23T15:47:13.422Z,3.02
2019-03-23T15:49:45.471Z,2.75
2019-03-23T15:52:17.423Z,2.72
2019-03-23T15:54:49.287Z,2.87
2019-03-23T15:57:21.209Z,3.10
2019-03-23T15:59:53.078Z,2.80
2019-03-23T16:02:25.045Z,2.85
2019-03-23T16:04:56.952Z,2.65
2019-03-23T16:07:29.697Z,2.72
2019-03-23T16:10:01.833Z,2.87
2019-03-23T16:12:35.321Z,2.70
2019-03-23T16:15:10.101Z,2.60
2019-03-23T16:17:43.178Z,2.80
2019-03-23T16:20:15.811Z,3.10
2019-03-23T16:22:47.696Z,2.40
2019-03-23T16:25:20.106Z,2.62
2019-03-23T16:27:51.995Z,2.80
2019-03-23T16:30:35.193Z,2.33
2019-03-23T16:33:07.086Z,2.55
2019-03-23T16:35:39.056Z,2.60
2019-03-23T16:38:10.987Z,2.70
2019-03-23T16:40:43.190Z,2.80
2019-03-23T16:43:15.032Z,2.42
2019-03-23T16:45:47.003Z,2.80
2019-03-23T16:48:18.965Z,2.62
2019-03-23T16:50:50.892Z,2.90
2019-03-23T16:53:22.806Z,3.00
2019-03-23T16:55:54.669Z,3.42
2019-03-23T16:58:26.587Z,3.37
2019-03-23T17:00:58.428Z,3.33
2019-03-23T17:03:30.283Z,3.92
2019-03-23T17:06:02.216Z,4.03
2019-03-23T17:08:34.449Z,4.33
2019-03-23T17:11:07.665Z,3.60
2019-03-23T17:13:39.509Z,3.98
2019-03-23T17:16:11.710Z,4.22
2019-03-23T17:18:43.581Z,3.70
2019-03-23T17:21:15.502Z,4.60
2019-03-23T17:23:47.364Z,3.85
2019-03-23T17:26:19.289Z,3.62
2019-03-23T17:28:51.394Z,3.80
2019-03-23T17:31:23.774Z,4.12
2019-03-23T17:33:55.774Z,4.08
2019-03-23T17:36:27.726Z,4.35
2019-03-23T17:38:59.627Z,3.95
2019-03-23T17:41:31.518Z,4.37
2019-03-23T17:44:04.886Z,4.25
2019-03-23T17:46:36.848Z,4.20
2019-03-23T17:49:08.710Z,3.95
2019-03-23T17:51:40.769Z,4.60
2019-03-23T17:54:12.784Z,4.40
2019-03-23T17:56:44.742Z,4.70
2019-03-23T17:59:16.748Z,4.40
2019-03-23T18:01:49.098Z,5.25
2019-03-23T18:04:21.012Z,5.08
2019-03-23T18:06:52.938Z,4.50
2019-03-23T18:09:25.001Z,4.92
2019-03-23T18:11:57.298Z,5.00
2019-03-23T18:14:29.642Z,4.90
2019-03-23T18:17:02.802Z,4.37
2019-03-23T18:19:35.756Z,4.78
2019-03-23T18:22:07.705Z,4.95
2019-03-23T18:24:39.587Z,5.78
2019-03-23T18:27:11.503Z,5.17
2019-03-23T18:29:44.803Z,5.75
2019-03-23T18:32:16.696Z,4.90
2019-03-23T18:34:48.638Z,5.62
2019-03-23T18:37:20.546Z,6.22
2019-03-23T18:39:52.447Z,5.67
2019-03-23T18:42:24.341Z,6.35
2019-03-23T18:44:56.230Z,5.55
2019-03-23T18:47:28.583Z,6.33
2019-03-23T18:50:00.500Z,6.17
2019-03-23T18:52:32.349Z,5.42
2019-03-23T18:55:04.578Z,5.67
2019-03-23T18:57:36.890Z,6.25
2019-03-23T19:00:09.912Z,5.85
2019-03-23T19:02:42.087Z,6.30
2019-03-23T19:05:14.916Z,6.15
2019-03-23T19:07:46.797Z,5.95
2019-03-23T19:10:18.709Z,6.53
2019-03-23T19:12:50.671Z,5.90
2019-03-23T19:15:22.789Z,6.35
2019-03-23T19:17:55.174Z,6.65
2019-03-23T19:20:27.037Z,11.60
2019-03-23T19:22:58.981Z,9.03
2019-03-23T19:25:31.469Z,7.20
2019-03-23T19:28:03.460Z,8.43
2019-03-23T19:30:35.445Z,7.28
2019-03-23T19:33:07.425Z,8.23
2019-03-23T19:35:39.313Z,8.30
2019-03-23T19:38:12.314Z,8.35
2019-03-23T19:40:44.200Z,10.95
2019-03-23T19:43:16.112Z,8.28
2019-03-23T19:45:48.003Z,7.28
2019-03-23T19:48:19.895Z,8.05
2019-03-23T19:50:51.814Z,13.70
2019-03-23T19:53:23.746Z,14.40
2019-03-23T19:55:55.982Z,15.25
2019-03-23T19:58:28.529Z,15.55
2019-03-23T20:01:00.533Z,16.95
2019-03-23T20:03:32.399Z,16.23
2019-03-23T20:06:04.478Z,35.63
2019-03-23T20:08:36.351Z,31.97
2019-03-23T20:11:08.388Z,28.40
2019-03-23T20:13:40.281Z,27.45
2019-03-23T20:16:12.213Z,35.35
2019-03-23T20:18:44.348Z,50.10
2019-03-23T20:21:16.266Z,48.35
2019-03-23T20:23:48.191Z,60.67
2019-03-23T20:26:20.250Z,49.13
2019-03-23T20:28:52.266Z,49.08
2019-03-23T20:31:24.331Z,38.95
2019-03-23T20:33:56.676Z,35.55
2019-03-23T20:36:28.911Z,20.95
2019-03-23T20:39:02.077Z,14.33
2019-03-23T20:41:35.555Z,16.73
2019-03-23T20:44:09.806Z,20.10
2019-03-23T20:46:41.513Z,23.62
2019-03-23T20:49:13.396Z,22.70
2019-03-23T20:51:46.940Z,21.42
2019-03-23T20:54:20.149Z,23.77
2019-03-23T20:56:52.136Z,20.75
2019-03-23T20:59:24.027Z,19.85
2019-03-23T21:01:55.956Z,16.57
2019-03-23T21:04:27.939Z,13.60
2019-03-23T21:07:00.886Z,15.05
2019-03-23T21:09:32.922Z,14.75
2019-03-23T21:12:04.998Z,16.70
2019-03-23T21:14:37.080Z,17.98
2019-03-23T21:17:09.019Z,19.25
2019-03-23T21:19:40.993Z,20.57
2019-03-23T21:22:13.239Z,20.72
2019-03-23T21:24:45.587Z,18.37
2019-03-23T21:27:17.549Z,16.55
2019-03-23T21:29:49.421Z,18.62
2019-03-23T21:32:21.433Z,20.30
2019-03-23T21:34:53.781Z,20.05
2019-03-23T21:37:25.699Z,21.62
2019-03-23T21:39:58.132Z,24.70
2019-03-23T21:42:30.010Z,25.70
2019-03-23T21:45:01.882Z,25.92
2019-03-23T21:47:35.550Z,24.40
2019-03-23T21:50:08.842Z,23.62
2019-03-23T21:52:41.874Z,23.05
2019-03-23T21:55:15.422Z,24.12
2019-03-23T21:57:48.476Z,20.45
2019-03-23T22:00:39.121Z,21.25
2019-03-23T22:03:11.234Z,21.23
2019-03-23T22:05:43.236Z,20.75
2019-03-23T22:08:15.106Z,22.30
2019-03-23T22:10:47.214Z,19.70
2019-03-23T22:13:19.443Z,18.90
2019-03-23T22:15:51.353Z,19.20
2019-03-23T22:18:23.269Z,19.50
2019-03-23T22:20:55.891Z,18.75
2019-03-23T22:23:28.639Z,19.60
2019-03-23T22:26:00.529Z,19.67
2019-03-23T22:28:32.444Z,19.52
2019-03-23T22:31:04.297Z,18.73
2019-03-23T22:33:36.213Z,17.77
2019-03-23T22:36:09.147Z,17.90
2019-03-23T22:38:41.765Z,17.95
2019-03-23T22:41:14.475Z,19.20
2019-03-23T22:43:46.786Z,17.20
2019-03-23T22:46:18.823Z,17.52
2019-03-23T22:48:51.158Z,17.95
2019-03-23T22:51:23.134Z,17.98
2019-03-23T22:53:55.566Z,20.10
2019-03-23T22:56:27.421Z,19.85
2019-03-23T22:58:59.323Z,20.55
2019-03-23T23:01:31.198Z,21.02
2019-03-23T23:04:06.973Z,23.85
2019-03-23T23:06:38.993Z,18.75
2019-03-23T23:09:11.690Z,23.35
2019-03-23T23:11:43.736Z,21.70
2019-03-23T23:14:17.176Z,21.80
2019-03-23T23:17:07.219Z,22.80
2019-03-23T23:20:08.484Z,23.95
2019-03-23T23:22:43.409Z,19.90
2019-03-23T23:25:15.400Z,21.23
2019-03-23T23:27:47.312Z,19.45
2019-03-23T23:30:19.495Z,20.48
2019-03-23T23:32:51.527Z,21.00
2019-03-23T23:35:23.850Z,20.68
2019-03-23T23:37:55.768Z,19.85
2019-03-23T23:40:27.717Z,18.70
2019-03-23T23:42:59.708Z,19.23
2019-03-23T23:45:31.816Z,18.17
2019-03-23T23:48:04.109Z,18.48
2019-03-23T23:50:36.102Z,18.32
2019-03-23T23:53:08.197Z,18.82
2019-03-23T23:55:40.110Z,17.25
2019-03-23T23:58:12.281Z,18.85
